Time;durP1;ratioP1;P1;durP2;ratioP2;P2;SDS_P1;SDS_P2;PMS_P1;PMS_P2;Temp;Humidity;BMP_temperature;BMP_pressure;BME280_temperature;BME280_humidity;BME280_pressure;Samples;Min_cycle;Max_cycle;Signal;HPM_P1;HPM_P2
2022/12/19 00:01:58;;;;;;;42.00;15.57;;;1.60;99.90;;;;;;4998023;28;20049;-70
2022/12/19 00:04:23;;;;;;;35.88;13.18;;;1.60;99.90;;;;;;5018541;28;20121;-70
2022/12/19 00:06:49;;;;;;;34.75;12.82;;;1.70;99.90;;;;;;5016907;28;20037;-71
2022/12/19 00:09:14;;;;;;;38.65;12.98;;;1.70;99.90;;;;;;5017757;28;20348;-71
2022/12/19 00:11:40;;;;;;;42.97;12.43;;;1.70;99.90;;;;;;5018192;28;20029;-72
2022/12/19 00:14:08;;;;;;;36.15;13.18;;;1.80;99.90;;;;;;4998695;28;20128;-72
2022/12/19 00:16:33;;;;;;;35.15;12.02;;;1.70;99.90;;;;;;5019113;28;20041;-71
2022/12/19 00:19:00;;;;;;;37.15;13.60;;;1.80;99.90;;;;;;5015168;28;20042;-71
2022/12/19 00:21:28;;;;;;;40.45;14.20;;;1.80;99.90;;;;;;5019144;28;20037;-71
2022/12/19 00:23:55;;;;;;;32.35;13.43;;;1.90;99.90;;;;;;5015804;28;20040;-70
2022/12/19 00:26:22;;;;;;;41.95;13.35;;;1.90;99.90;;;;;;4999337;28;20064;-71
2022/12/19 00:28:51;;;;;;;39.22;13.40;;;1.90;99.90;;;;;;5015995;28;20038;-71
2022/12/19 00:31:18;;;;;;;33.95;12.57;;;1.90;99.90;;;;;;5016600;28;20041;-71
2022/12/19 00:33:44;;;;;;;33.30;13.35;;;2.00;99.90;;;;;;5016156;28;20030;-70
2022/12/19 00:36:15;;;;;;;35.90;12.40;;;2.00;99.90;;;;;;5018722;28;20068;-70
2022/12/19 00:38:41;;;;;;;34.83;12.82;;;1.90;99.90;;;;;;5016028;28;20041;-70
2022/12/19 00:41:15;;;;;;;32.83;11.25;;;2.00;99.90;;;;;;5019275;28;20037;-71
2022/12/19 00:43:42;;;;;;;36.00;12.60;;;2.00;99.90;;;;;;5016716;28;20057;-70
2022/12/19 00:46:14;;;;;;;32.40;13.40;;;2.00;99.90;;;;;;5017123;28;20037;-71
2022/12/19 00:48:40;;;;;;;35.85;12.25;;;2.00;99.90;;;;;;5015399;28;20037;-72
2022/12/19 00:51:11;;;;;;;29.10;13.15;;;2.00;99.90;;;;;;5022221;28;20033;-70
2022/12/19 00:53:36;;;;;;;33.50;13.02;;;2.10;99.90;;;;;;5019748;28;20092;-70
2022/12/19 00:56:05;;;;;;;31.77;11.80;;;2.10;99.90;;;;;;5022130;28;20421;-70
2022/12/19 00:58:30;;;;;;;38.55;13.90;;;2.10;99.90;;;;;;5012791;28;20037;-70
2022/12/19 01:00:57;;;;;;;37.80;13.13;;;2.10;99.90;;;;;;5000654;28;20048;-69
2022/12/19 01:03:23;;;;;;;40.08;12.23;;;2.20;99.90;;;;;;5021624;28;20034;-69
2022/12/19 01:05:50;;;;;;;32.85;12.57;;;2.20;99.90;;;;;;5021140;28;20075;-69
2022/12/19 01:08:17;;;;;;;35.45;12.65;;;2.20;99.90;;;;;;5019638;28;20409;-69
2022/12/19 01:10:47;;;;;;;41.45;12.85;;;2.20;99.90;;;;;;5019924;28;20691;-70
2022/12/19 01:13:14;;;;;;;29.50;9.70;;;2.20;99.90;;;;;;5021574;28;20033;-70
2022/12/19 01:15:40;;;;;;;37.22;13.48;;;2.20;99.90;;;;;;5020550;28;20041;-70
2022/12/19 01:18:09;;;;;;;41.88;13.77;;;2.20;99.90;;;;;;5021242;28;20033;-69
2022/12/19 01:20:40;;;;;;;38.53;14.38;;;2.30;99.90;;;;;;5019390;28;20036;-70
2022/12/19 01:23:08;;;;;;;46.97;14.45;;;2.30;99.90;;;;;;5020915;28;20029;-70
2022/12/19 01:25:36;;;;;;;39.10;13.35;;;2.30;99.90;;;;;;5016073;28;20042;-70
2022/12/19 01:28:02;;;;;;;41.65;13.70;;;2.30;99.90;;;;;;5017867;28;20032;-70
2022/12/19 01:30:28;;;;;;;49.92;14.38;;;2.40;99.90;;;;;;5022455;28;20124;-69
2022/12/19 01:32:54;;;;;;;49.83;16.17;;;2.40;99.90;;;;;;5017155;28;20109;-70
2022/12/19 01:35:21;;;;;;;47.50;14.38;;;2.50;99.90;;;;;;5003202;28;20034;-70
2022/12/19 01:37:46;;;;;;;43.85;13.95;;;2.50;99.90;;;;;;5017231;28;20041;-70
2022/12/19 01:40:13;;;;;;;43.35;14.02;;;2.50;99.90;;;;;;5020214;28;20045;-70
2022/12/19 01:42:39;;;;;;;39.05;13.30;;;2.50;99.90;;;;;;5020898;28;20025;-71
2022/12/19 01:45:21;;;;;;;42.33;13.77;;;2.60;99.90;;;;;;5017893;28;20053;-69
2022/12/19 01:47:52;;;;;;;38.00;12.35;;;2.60;99.90;;;;;;5019059;28;20029;-70
2022/12/19 01:50:49;;;;;;;44.15;14.38;;;2.60;99.90;;;;;;5020643;28;20493;-70
2022/12/19 01:53:15;;;;;;;34.90;13.35;;;2.70;99.90;;;;;;5018462;28;20034;-70
2022/12/19 01:55:42;;;;;;;39.40;13.10;;;2.70;99.90;;;;;;5019629;28;20043;-70
2022/12/19 01:58:11;;;;;;;46.15;14.65;;;2.70;99.90;;;;;;5020509;28;20081;-71
2022/12/19 02:00:37;;;;;;;36.90;12.27;;;2.80;99.90;;;;;;5018888;28;20026;-70
2022/12/19 02:03:10;;;;;;;39.97;12.45;;;2.80;99.90;;;;;;5020041;28;20044;-70
2022/12/19 02:05:36;;;;;;;36.28;12.38;;;2.80;99.90;;;;;;5019258;28;20125;-70
2022/12/19 02:08:02;;;;;;;36.08;13.30;;;2.80;99.90;;;;;;5020487;28;20120;-70
2022/12/19 02:10:28;;;;;;;40.03;12.85;;;2.90;99.90;;;;;;5018432;28;20026;-70
2022/12/19 02:12:54;;;;;;;44.00;13.93;;;2.90;99.90;;;;;;5020722;28;20478;-70
2022/12/19 02:15:20;;;;;;;34.35;12.32;;;2.90;99.90;;;;;;5000554;28;20133;-70
2022/12/19 02:18:01;;;;;;;39.25;11.70;;;2.90;99.90;;;;;;5019812;28;20042;-70
2022/12/19 02:20:29;;;;;;;36.97;11.60;;;3.00;99.90;;;;;;5014307;28;20045;-70
2022/12/19 02:23:13;;;;;;;39.95;11.15;;;3.00;99.90;;;;;;5013626;28;20068;-70
2022/12/19 02:26:23;;;;;;;34.03;11.23;;;3.10;99.90;;;;;;5013695;28;20694;-71
2022/12/19 02:29:10;;;;;;;37.20;11.55;;;3.20;99.90;;;;;;5018599;28;20029;-70
2022/12/19 02:32:17;;;;;;;32.97;10.40;;;3.30;99.90;;;;;;5016883;28;20050;-70
2022/12/19 02:35:30;;;;;;;34.30;11.70;;;3.30;99.90;;;;;;5006285;28;20181;-68
2022/12/19 02:38:20;;;;;;;37.03;11.07;;;3.40;99.90;;;;;;4940248;28;20047;-70
2022/12/19 02:40:56;;;;;;;40.45;11.55;;;3.40;99.90;;;;;;4939392;28;20040;-70
2022/12/19 02:43:26;;;;;;;33.63;11.05;;;3.50;99.90;;;;;;4990154;28;20137;-70
2022/12/19 02:45:53;;;;;;;33.58;10.88;;;3.50;99.90;;;;;;5013241;28;20081;-70
2022/12/19 02:48:19;;;;;;;36.28;10.88;;;3.50;99.90;;;;;;5020901;28;20508;-70
2022/12/19 02:50:47;;;;;;;35.22;11.15;;;3.50;99.90;;;;;;5019235;28;20045;-70
2022/12/19 02:53:14;;;;;;;35.05;11.57;;;3.60;99.90;;;;;;5021282;28;20087;-69
2022/12/19 02:55:48;;;;;;;30.02;10.43;;;3.70;99.90;;;;;;5018081;28;20132;-71
2022/12/19 02:58:30;;;;;;;35.80;11.13;;;3.70;99.90;;;;;;5019977;28;20038;-69
2022/12/19 03:01:16;;;;;;;37.20;11.98;;;3.70;99.90;;;;;;4995199;28;20034;-70
2022/12/19 03:04:11;;;;;;;27.63;10.80;;;3.70;99.90;;;;;;5017879;28;20045;-71
2022/12/19 03:06:59;;;;;;;30.85;10.73;;;3.70;99.90;;;;;;5017390;28;20057;-70
2022/12/19 03:09:41;;;;;;;26.02;9.15;;;3.90;99.90;;;;;;5013141;28;20033;-70
2022/12/19 03:12:15;;;;;;;26.52;10.27;;;3.90;99.90;;;;;;5015798;28;20406;-70
2022/12/19 03:14:42;;;;;;;29.75;9.98;;;3.90;99.90;;;;;;5017938;28;20052;-71
2022/12/19 03:17:08;;;;;;;24.60;9.57;;;3.90;99.90;;;;;;5018830;28;20494;-70
2022/12/19 03:19:35;;;;;;;26.77;10.27;;;4.00;99.90;;;;;;5019853;28;20057;-70
2022/12/19 03:22:00;;;;;;;24.10;8.70;;;4.00;99.90;;;;;;5016478;28;20049;-70
2022/12/19 03:24:27;;;;;;;25.65;8.77;;;4.10;99.90;;;;;;5020265;28;20037;-70
2022/12/19 03:26:59;;;;;;;28.13;9.13;;;4.10;99.90;;;;;;5000393;28;20887;-70
2022/12/19 03:29:37;;;;;;;25.80;9.27;;;4.20;99.90;;;;;;5013790;28;20041;-69
2022/12/19 03:32:06;;;;;;;23.40;8.85;;;4.20;99.90;;;;;;5018182;28;20477;-70
2022/12/19 03:34:49;;;;;;;21.73;8.43;;;4.20;99.90;;;;;;5017734;28;20034;-69
2022/12/19 03:37:19;;;;;;;20.23;8.25;;;4.20;99.90;;;;;;5016736;28;20057;-70
2022/12/19 03:39:49;;;;;;;19.42;7.72;;;4.20;99.90;;;;;;5018885;28;20057;-69
2022/12/19 03:45:04;;;;;;;23.10;9.05;;;4.30;99.90;;;;;;5014362;28;20446;-70
2022/12/19 03:47:34;;;;;;;19.17;8.20;;;4.30;99.90;;;;;;5020167;28;20032;-69
2022/12/19 03:50:00;;;;;;;20.65;7.72;;;4.30;99.90;;;;;;5018537;28;20041;-69
2022/12/19 03:52:32;;;;;;;22.17;7.93;;;4.30;99.90;;;;;;5017832;28;20045;-69
2022/12/19 03:55:19;;;;;;;19.42;7.30;;;4.40;99.90;;;;;;5019604;28;20025;-69
2022/12/19 03:58:01;;;;;;;19.65;7.85;;;4.40;99.90;;;;;;5015750;28;20033;-70
2022/12/19 04:00:29;;;;;;;17.52;6.85;;;4.40;99.90;;;;;;5015759;28;20072;-70
2022/12/19 04:02:57;;;;;;;23.35;7.43;;;4.40;99.90;;;;;;5020873;28;20045;-70
2022/12/19 04:05:26;;;;;;;19.35;7.70;;;4.40;99.90;;;;;;5015394;28;20046;-69
2022/12/19 04:07:56;;;;;;;18.98;6.75;;;4.40;99.90;;;;;;5022217;28;20029;-70
2022/12/19 04:10:25;;;;;;;15.88;7.30;;;4.50;99.90;;;;;;5019975;28;20030;-70
2022/12/19 04:13:00;;;;;;;19.13;7.53;;;4.50;99.90;;;;;;5010468;28;20505;-69
2022/12/19 04:15:50;;;;;;;19.80;7.38;;;4.50;99.90;;;;;;5023419;28;20534;-71
2022/12/19 04:18:18;;;;;;;18.63;8.23;;;4.50;99.90;;;;;;5026496;28;20046;-69
2022/12/19 04:20:53;;;;;;;16.75;7.25;;;4.50;99.90;;;;;;5028988;28;20037;-71
2022/12/19 04:23:29;;;;;;;19.65;6.20;;;4.50;99.90;;;;;;5023415;28;20527;-68
2022/12/19 04:26:00;;;;;;;16.13;6.25;;;4.60;99.90;;;;;;5026485;28;20047;-69
2022/12/19 04:28:44;;;;;;;14.57;5.45;;;4.60;99.90;;;;;;5028484;28;20141;-70
2022/12/19 04:31:15;;;;;;;12.80;5.80;;;4.60;99.90;;;;;;5027700;28;20047;-69
2022/12/19 04:33:40;;;;;;;14.00;6.00;;;4.70;99.90;;;;;;5028917;28;20130;-70
2022/12/19 04:36:07;;;;;;;15.90;5.93;;;4.70;99.90;;;;;;5031359;28;20397;-70
2022/12/19 04:38:32;;;;;;;12.88;6.20;;;4.70;99.90;;;;;;5029764;28;20042;-70
2022/12/19 04:40:58;;;;;;;18.27;6.15;;;4.80;99.90;;;;;;5026214;28;20064;-69
2022/12/19 04:43:24;;;;;;;14.05;5.47;;;4.80;99.90;;;;;;5024880;28;20113;-70
2022/12/19 04:45:49;;;;;;;15.30;6.63;;;4.80;99.90;;;;;;5016497;28;20061;-70
2022/12/19 04:48:15;;;;;;;17.05;6.10;;;4.90;99.90;;;;;;5017163;28;20037;-69
2022/12/19 04:50:40;;;;;;;14.90;6.60;;;4.90;99.90;;;;;;5009229;28;20121;-71
2022/12/19 04:53:06;;;;;;;15.02;6.03;;;5.00;99.90;;;;;;5008019;28;20030;-69
2022/12/19 04:55:32;;;;;;;17.77;6.75;;;5.00;99.90;;;;;;5014913;28;20038;-67
2022/12/19 04:57:57;;;;;;;14.38;6.10;;;5.00;99.90;;;;;;5018467;28;20034;-72
2022/12/19 05:00:23;;;;;;;14.57;6.20;;;5.00;99.90;;;;;;5013780;28;20034;-70
2022/12/19 05:02:49;;;;;;;14.23;5.85;;;5.10;99.90;;;;;;5018497;28;20034;-71
2022/12/19 05:05:15;;;;;;;14.15;5.30;;;5.10;99.90;;;;;;5012840;28;20046;-71
2022/12/19 05:07:41;;;;;;;15.10;5.63;;;5.10;99.90;;;;;;5016421;28;20498;-72
2022/12/19 05:10:07;;;;;;;12.63;5.40;;;5.20;99.90;;;;;;5018082;28;20041;-72
2022/12/19 05:12:32;;;;;;;11.32;5.40;;;5.20;99.90;;;;;;5016789;28;20029;-69
2022/12/19 05:14:58;;;;;;;11.40;4.90;;;5.20;99.90;;;;;;5015617;28;20046;-72
2022/12/19 05:17:23;;;;;;;10.85;5.13;;;5.30;99.90;;;;;;5018191;28;20045;-72
2022/12/19 05:19:49;;;;;;;14.10;5.70;;;5.30;99.90;;;;;;5014592;28;20034;-70
2022/12/19 05:22:14;;;;;;;14.20;5.82;;;5.40;99.90;;;;;;5001038;28;20033;-71
2022/12/19 05:24:40;;;;;;;16.25;6.15;;;5.30;99.90;;;;;;5012507;28;20044;-71
2022/12/19 05:27:06;;;;;;;13.38;5.78;;;5.30;99.90;;;;;;5013305;28;20046;-71
2022/12/19 05:29:32;;;;;;;12.07;5.72;;;5.30;99.90;;;;;;5016776;28;20049;-71
2022/12/19 05:31:57;;;;;;;14.63;5.53;;;5.40;99.90;;;;;;5015724;28;20449;-71
2022/12/19 05:34:23;;;;;;;15.55;5.90;;;5.40;99.90;;;;;;5017753;28;20061;-69
2022/12/19 05:36:49;;;;;;;14.85;5.88;;;5.40;99.90;;;;;;5017681;28;20054;-69
2022/12/19 05:39:15;;;;;;;13.23;5.63;;;5.50;99.90;;;;;;5022270;28;20048;-70
2022/12/19 05:41:41;;;;;;;15.73;5.82;;;5.50;99.90;;;;;;5017809;28;20096;-70
2022/12/19 05:44:06;;;;;;;13.23;4.97;;;5.50;99.90;;;;;;5021632;28;20091;-69
2022/12/19 05:46:32;;;;;;;15.32;5.38;;;5.60;99.90;;;;;;5017732;28;20565;-70
2022/12/19 05:48:58;;;;;;;14.15;6.50;;;5.70;99.90;;;;;;5019889;28;20043;-70
2022/12/19 05:51:24;;;;;;;14.60;5.13;;;5.60;99.90;;;;;;5002067;28;20041;-70
2022/12/19 05:53:49;;;;;;;11.75;5.75;;;5.70;99.90;;;;;;5020392;28;20025;-71
2022/12/19 05:56:18;;;;;;;13.38;5.18;;;5.70;99.90;;;;;;5018083;28;20483;-71
2022/12/19 05:58:45;;;;;;;12.15;5.20;;;5.70;99.90;;;;;;5012869;28;20039;-71
2022/12/19 06:01:17;;;;;;;13.57;5.55;;;5.80;99.90;;;;;;5018399;28;20050;-70
2022/12/19 06:03:43;;;;;;;13.95;5.72;;;5.80;99.90;;;;;;5013965;28;20049;-70
2022/12/19 06:06:12;;;;;;;12.77;5.45;;;5.90;99.90;;;;;;5018008;28;20034;-69
2022/12/19 06:08:37;;;;;;;13.35;5.53;;;5.90;99.90;;;;;;5018127;28;20409;-70
2022/12/19 06:11:05;;;;;;;16.85;6.32;;;5.90;99.90;;;;;;5016766;28;20122;-70
2022/12/19 06:13:31;;;;;;;12.95;5.43;;;6.00;99.90;;;;;;5018469;28;20045;-71
2022/12/19 06:16:05;;;;;;;11.98;5.72;;;6.00;99.90;;;;;;5013365;28;20109;-71
2022/12/19 06:18:31;;;;;;;10.82;5.40;;;6.10;99.90;;;;;;5016647;28;20026;-70
2022/12/19 06:21:03;;;;;;;11.38;5.70;;;6.10;99.90;;;;;;5018540;28;20037;-70
2022/12/19 06:23:31;;;;;;;13.57;5.93;;;6.10;99.90;;;;;;5019575;28;20041;-70
2022/12/19 06:25:57;;;;;;;15.00;5.35;;;6.20;99.90;;;;;;5016207;28;20049;-69
2022/12/19 06:28:25;;;;;;;12.20;5.80;;;6.20;99.90;;;;;;5013861;28;20034;-69
2022/12/19 06:30:51;;;;;;;18.63;5.78;;;6.30;99.90;;;;;;5018960;28;20028;-71
2022/12/19 06:33:17;;;;;;;13.50;5.68;;;6.40;99.90;;;;;;5017055;28;20042;-70
2022/12/19 06:35:43;;;;;;;17.35;6.60;;;6.40;99.90;;;;;;5018975;28;20180;-69
2022/12/19 06:38:08;;;;;;;13.15;5.72;;;6.40;99.90;;;;;;5016836;28;20132;-70
2022/12/19 06:43:18;;;;;;;14.35;5.63;;;6.50;99.90;;;;;;5003189;28;20037;-70
2022/12/19 06:45:44;;;;;;;17.15;6.43;;;6.50;99.90;;;;;;5007919;28;20029;-68
2022/12/19 06:48:09;;;;;;;13.32;6.00;;;6.50;99.90;;;;;;5004799;28;20125;-70
2022/12/19 06:50:35;;;;;;;18.13;6.90;;;6.50;99.90;;;;;;5006115;28;20034;-67
2022/12/19 06:53:01;;;;;;;16.67;6.13;;;6.50;99.90;;;;;;5004840;28;20074;-70
2022/12/19 06:55:26;;;;;;;13.93;6.13;;;6.60;99.90;;;;;;5006043;28;20046;-69
2022/12/19 06:57:52;;;;;;;12.35;5.63;;;6.60;99.90;;;;;;5003227;28;20037;-69
2022/12/19 07:00:19;;;;;;;15.13;5.90;;;6.60;99.90;;;;;;4988397;28;20528;-71
2022/12/19 07:02:48;;;;;;;14.02;6.13;;;6.70;99.90;;;;;;5003775;28;20122;-71
2022/12/19 07:05:14;;;;;;;16.77;6.22;;;6.70;99.90;;;;;;5005361;28;20080;-70
2022/12/19 07:07:40;;;;;;;13.05;6.00;;;6.70;99.90;;;;;;5003857;28;20038;-70
2022/12/19 07:10:07;;;;;;;12.07;5.90;;;6.70;99.90;;;;;;5005942;28;20117;-68
2022/12/19 07:12:34;;;;;;;13.43;5.70;;;6.70;99.90;;;;;;5005367;28;20042;-70
2022/12/19 07:15:00;;;;;;;11.95;6.18;;;6.70;99.90;;;;;;5005942;28;20107;-70
2022/12/19 07:17:26;;;;;;;14.10;5.47;;;6.70;99.90;;;;;;5007297;28;20042;-69
2022/12/19 07:19:54;;;;;;;13.50;5.05;;;6.80;99.90;;;;;;5004891;28;20046;-69
2022/12/19 07:22:20;;;;;;;14.05;5.10;;;6.80;99.90;;;;;;5004695;28;20783;-69
2022/12/19 07:24:45;;;;;;;13.07;5.25;;;6.80;99.90;;;;;;5005195;28;20092;-69
2022/12/19 07:27:11;;;;;;;13.70;6.10;;;6.80;99.90;;;;;;5004674;28;20038;-70
2022/12/19 07:29:37;;;;;;;12.85;5.78;;;6.80;99.90;;;;;;5005707;28;20168;-68
2022/12/19 07:32:02;;;;;;;11.90;5.45;;;6.90;99.90;;;;;;5004260;28;20038;-69
2022/12/19 07:34:28;;;;;;;13.60;5.45;;;6.90;99.90;;;;;;5009910;28;20120;-69
2022/12/19 07:36:54;;;;;;;12.77;5.40;;;6.90;99.90;;;;;;5015257;28;20030;-69
2022/12/19 07:39:20;;;;;;;11.48;4.95;;;6.90;99.90;;;;;;5016275;28;20045;-69
2022/12/19 07:41:46;;;;;;;9.95;5.10;;;7.00;99.90;;;;;;5014324;28;20132;-70
2022/12/19 07:44:12;;;;;;;9.60;4.47;;;7.00;99.90;;;;;;5013928;28;20176;-70
2022/12/19 07:46:38;;;;;;;11.45;5.20;;;7.00;99.90;;;;;;5011562;28;20107;-70
2022/12/19 07:49:04;;;;;;;11.13;4.20;;;7.00;99.90;;;;;;5015784;28;20547;-69
2022/12/19 07:51:29;;;;;;;12.65;4.63;;;7.00;99.90;;;;;;5014021;28;20129;-70
2022/12/19 07:53:55;;;;;;;13.57;5.35;;;7.00;99.90;;;;;;5015061;28;20030;-70
2022/12/19 07:56:21;;;;;;;15.45;4.90;;;7.10;99.90;;;;;;5016832;28;20121;-69
2022/12/19 07:58:46;;;;;;;11.45;4.53;;;7.10;99.90;;;;;;5009281;28;20065;-70
2022/12/19 08:01:12;;;;;;;8.80;4.55;;;7.10;99.90;;;;;;5018224;28;20045;-71
2022/12/19 08:03:38;;;;;;;7.78;3.90;;;7.10;99.90;;;;;;5013766;28;20040;-71
2022/12/19 08:06:05;;;;;;;16.60;4.40;;;7.20;99.90;;;;;;5007137;28;20041;-70
2022/12/19 08:08:32;;;;;;;10.02;4.07;;;7.20;99.90;;;;;;5008545;28;21245;-69
2022/12/19 08:11:25;;;;;;;13.55;4.93;;;7.20;99.90;;;;;;5011763;28;20053;-69
2022/12/19 08:13:51;;;;;;;9.00;4.30;;;7.20;99.90;;;;;;4997370;28;20038;-70
2022/12/19 08:16:16;;;;;;;10.43;4.00;;;7.20;99.90;;;;;;5018171;28;20045;-72
2022/12/19 08:18:42;;;;;;;9.68;4.20;;;7.20;99.90;;;;;;5015688;28;20037;-70
2022/12/19 08:21:09;;;;;;;11.75;3.92;;;7.20;99.90;;;;;;5018862;28;20100;-67
2022/12/19 08:23:35;;;;;;;11.20;4.85;;;7.20;99.90;;;;;;5014103;28;20029;-68
2022/12/19 08:26:04;;;;;;;10.85;4.47;;;7.20;99.90;;;;;;5015507;28;20075;-69
2022/12/19 08:28:32;;;;;;;9.25;3.90;;;7.30;99.90;;;;;;5016591;28;20121;-70
2022/12/19 08:31:12;;;;;;;10.82;4.47;;;7.30;99.90;;;;;;5017998;28;20043;-72
2022/12/19 08:33:38;;;;;;;9.30;4.63;;;7.30;99.90;;;;;;5012171;28;20029;-71
2022/12/19 08:36:08;;;;;;;11.00;4.68;;;7.30;99.90;;;;;;5018315;28;20104;-71
2022/12/19 08:38:35;;;;;;;12.25;4.68;;;7.40;99.90;;;;;;5012514;28;20040;-71
2022/12/19 08:41:01;;;;;;;11.65;4.70;;;7.40;99.90;;;;;;5018288;28;20083;-70
2022/12/19 08:43:29;;;;;;;8.32;3.47;;;7.40;99.90;;;;;;5016063;28;20042;-69
2022/12/19 08:45:55;;;;;;;10.20;4.80;;;7.40;99.90;;;;;;5017060;28;20076;-70
2022/12/19 08:48:22;;;;;;;12.35;4.35;;;7.40;99.90;;;;;;5016750;28;20041;-70
2022/12/19 08:50:52;;;;;;;11.65;4.68;;;7.40;99.90;;;;;;5015427;28;20038;-70
2022/12/19 08:53:19;;;;;;;9.05;3.97;;;7.40;99.90;;;;;;5015736;28;20087;-71
2022/12/19 08:55:45;;;;;;;12.07;5.60;;;7.40;99.90;;;;;;5015528;28;20557;-71
2022/12/19 08:58:10;;;;;;;7.78;3.75;;;7.40;99.90;;;;;;5015373;28;20066;-70
2022/12/19 09:00:36;;;;;;;13.30;4.05;;;7.40;99.90;;;;;;5000729;28;20052;-70
2022/12/19 09:03:02;;;;;;;11.23;4.65;;;7.40;99.90;;;;;;5014317;28;20045;-70
2022/12/19 09:05:27;;;;;;;8.05;3.67;;;7.50;99.90;;;;;;5017854;28;20033;-70
2022/12/19 09:07:53;;;;;;;9.63;4.00;;;7.50;99.90;;;;;;5014883;28;20467;-70
2022/12/19 09:10:19;;;;;;;10.25;4.70;;;7.50;99.90;;;;;;5017637;28;20030;-71
2022/12/19 09:12:44;;;;;;;12.60;4.05;;;7.50;99.90;;;;;;5002303;28;20029;-71
2022/12/19 09:15:10;;;;;;;8.50;3.83;;;7.50;99.90;;;;;;5002024;28;20105;-70
2022/12/19 09:17:35;;;;;;;8.75;3.80;;;7.50;99.90;;;;;;5018980;28;20033;-70
2022/12/19 09:20:01;;;;;;;7.80;3.70;;;7.50;99.90;;;;;;5017079;28;20047;-69
2022/12/19 09:22:27;;;;;;;7.13;3.53;;;7.60;99.90;;;;;;5021994;28;20032;-70
2022/12/19 09:24:52;;;;;;;9.13;4.68;;;7.60;99.90;;;;;;5019082;28;20029;-70
2022/12/19 09:27:18;;;;;;;8.20;3.90;;;7.60;99.90;;;;;;5000213;28;20046;-70
2022/12/19 09:29:43;;;;;;;12.65;3.30;;;7.50;99.90;;;;;;5020031;28;20604;-70
2022/12/19 09:32:09;;;;;;;8.43;3.83;;;7.60;99.90;;;;;;5022822;28;20041;-70
2022/12/19 09:34:35;;;;;;;14.25;3.47;;;7.60;99.90;;;;;;5018493;28;20504;-71
2022/12/19 09:37:01;;;;;;;9.25;3.60;;;7.60;99.90;;;;;;5020990;28;20505;-69
2022/12/19 09:39:26;;;;;;;7.85;3.60;;;7.70;99.90;;;;;;5018914;28;20042;-69
2022/12/19 09:42:32;;;;;;;9.75;3.90;;;7.70;99.90;;;;;;5020520;28;20030;-70
2022/12/19 09:45:19;;;;;;;9.82;3.58;;;7.60;99.90;;;;;;5013066;28;20092;-71
2022/12/19 09:47:47;;;;;;;8.10;3.95;;;7.60;99.90;;;;;;5011960;28;20073;-70
2022/12/19 09:50:29;;;;;;;12.55;3.83;;;7.60;99.90;;;;;;5006286;28;20042;-69
2022/12/19 09:53:01;;;;;;;9.48;3.50;;;7.70;99.90;;;;;;5006655;28;20498;-71
2022/12/19 09:55:33;;;;;;;11.65;4.55;;;7.70;99.90;;;;;;5007372;28;20971;-70
2022/12/19 09:58:19;;;;;;;14.40;4.10;;;7.70;99.90;;;;;;5004148;28;20030;-70
2022/12/19 10:00:50;;;;;;;7.72;3.97;;;7.70;99.90;;;;;;5008628;28;20030;-71
2022/12/19 10:03:20;;;;;;;8.15;3.22;;;7.80;99.90;;;;;;5013735;28;20125;-72
2022/12/19 10:05:53;;;;;;;5.72;3.42;;;7.80;99.90;;;;;;5005922;28;20130;-72
2022/12/19 10:08:30;;;;;;;6.70;3.28;;;7.90;99.90;;;;;;4992334;28;20655;-70
2022/12/19 10:11:06;;;;;;;11.15;3.78;;;7.90;99.90;;;;;;5005538;28;20482;-69
2022/12/19 10:13:40;;;;;;;9.70;3.20;;;8.00;99.90;;;;;;5016157;28;20099;-70
2022/12/19 10:16:11;;;;;;;9.52;3.80;;;8.00;99.90;;;;;;5017000;28;20084;-70
2022/12/19 10:18:51;;;;;;;5.95;3.33;;;8.00;99.90;;;;;;5019532;28;20042;-69
2022/12/19 10:21:32;;;;;;;6.73;3.30;;;8.00;99.90;;;;;;5019138;28;20176;-70
2022/12/19 10:24:14;;;;;;;8.57;3.28;;;8.00;99.90;;;;;;5011617;28;20277;-70
2022/12/19 10:26:50;;;;;;;8.90;3.40;;;8.00;99.90;;;;;;5008972;28;20128;-70
2022/12/19 10:29:55;;;;;;;7.97;3.15;;;8.10;99.90;;;;;;5019552;28;20040;-70
2022/12/19 10:33:00;;;;;;;9.27;3.30;;;8.10;99.90;;;;;;5017904;28;20049;-70
2022/12/19 10:35:33;;;;;;;6.63;2.72;;;8.10;99.90;;;;;;4998696;28;20044;-70
2022/12/19 10:38:10;;;;;;;8.55;2.65;;;8.10;99.90;;;;;;5018740;28;20030;-70
2022/12/19 10:40:39;;;;;;;8.35;3.20;;;8.10;99.90;;;;;;5012416;28;20044;-70
2022/12/19 10:43:13;;;;;;;6.25;2.83;;;8.10;99.90;;;;;;5018625;28;20029;-70
2022/12/19 10:45:46;;;;;;;8.02;3.22;;;8.10;99.90;;;;;;5018386;28;20053;-70
2022/12/19 10:48:16;;;;;;;6.53;2.78;;;8.10;99.90;;;;;;5000295;28;20026;-69
2022/12/19 10:50:42;;;;;;;5.43;2.67;;;8.10;99.90;;;;;;5007680;28;20502;-71
2022/12/19 10:53:11;;;;;;;7.70;2.88;;;8.10;99.90;;;;;;4998735;28;20289;-70
2022/12/19 10:55:49;;;;;;;6.53;3.08;;;8.20;99.90;;;;;;5013316;28;20040;-70
2022/12/19 10:58:27;;;;;;;6.97;2.88;;;8.10;99.90;;;;;;5018113;28;20060;-69
2022/12/19 11:01:01;;;;;;;6.72;3.17;;;8.10;99.90;;;;;;5000658;28;20030;-69
2022/12/19 11:03:27;;;;;;;9.50;3.00;;;8.10;99.90;;;;;;5014817;28;20049;-67
2022/12/19 11:05:55;;;;;;;6.90;3.00;;;8.10;99.90;;;;;;5015822;28;20525;-70
2022/12/19 11:08:27;;;;;;;5.35;2.90;;;8.20;99.90;;;;;;5017697;28;20122;-69
2022/12/19 11:11:07;;;;;;;7.40;2.95;;;8.20;99.90;;;;;;5018077;28;20025;-70
2022/12/19 11:13:32;;;;;;;4.50;2.70;;;8.20;99.90;;;;;;5014345;28;20026;-69
2022/12/19 11:15:59;;;;;;;8.68;2.85;;;8.20;99.90;;;;;;5018855;28;20043;-71
2022/12/19 11:18:38;;;;;;;6.07;3.30;;;8.20;99.90;;;;;;5016722;28;20037;-69
2022/12/19 11:21:13;;;;;;;7.03;2.88;;;8.20;99.90;;;;;;5013471;28;20142;-71
2022/12/19 11:23:56;;;;;;;8.90;3.05;;;8.30;99.90;;;;;;5016112;28;20037;-70
2022/12/19 11:26:43;;;;;;;6.68;3.00;;;8.30;99.90;;;;;;5015523;28;20038;-69
2022/12/19 11:29:27;;;;;;;8.15;2.92;;;8.30;99.90;;;;;;5015496;28;20038;-70
2022/12/19 11:31:57;;;;;;;6.25;2.70;;;8.40;99.90;;;;;;5012021;28;20054;-69
2022/12/19 11:34:25;;;;;;;5.43;2.97;;;8.30;99.90;;;;;;5007216;28;20030;-69
2022/12/19 11:37:20;;;;;;;7.43;3.50;;;8.40;99.90;;;;;;5018523;28;20406;-70
2022/12/19 11:39:48;;;;;;;4.65;2.50;;;8.40;99.90;;;;;;5017348;28;20061;-71
2022/12/19 11:42:25;;;;;;;7.32;3.00;;;8.30;99.90;;;;;;5017106;28;20037;-70
2022/12/19 11:45:04;;;;;;;6.13;3.05;;;8.40;99.90;;;;;;5018500;28;20121;-69
2022/12/19 11:47:38;;;;;;;6.35;2.67;;;8.40;99.90;;;;;;5013685;28;20038;-68
2022/12/19 11:50:39;;;;;;;6.65;2.72;;;8.50;99.90;;;;;;5012745;28;20049;-70
2022/12/19 11:53:26;;;;;;;7.20;2.70;;;8.50;99.90;;;;;;5013735;28;20042;-70
2022/12/19 11:56:07;;;;;;;5.82;2.47;;;8.50;99.90;;;;;;5011387;28;20034;-69
2022/12/19 11:58:33;;;;;;;4.78;2.45;;;8.60;99.90;;;;;;5014521;28;20068;-69
2022/12/19 12:01:20;;;;;;;5.57;2.35;;;8.60;99.90;;;;;;5013171;28;20053;-69
2022/12/19 12:04:04;;;;;;;4.78;2.85;;;8.60;99.90;;;;;;5018415;28;20061;-68
2022/12/19 12:06:55;;;;;;;4.20;2.63;;;8.60;99.90;;;;;;5013276;28;20096;-66
2022/12/19 12:09:32;;;;;;;6.00;2.70;;;8.60;99.90;;;;;;5010895;28;20038;-70
2022/12/19 12:12:04;;;;;;;5.40;2.60;;;8.70;99.90;;;;;;5012618;28;20398;-70
2022/12/19 12:14:46;;;;;;;6.93;2.75;;;8.70;99.90;;;;;;5015136;28;20037;-67
2022/12/19 12:17:41;;;;;;;5.85;2.55;;;8.70;99.90;;;;;;5014491;28;20037;-67
2022/12/19 12:20:28;;;;;;;6.43;2.22;;;8.70;99.90;;;;;;5008522;28;20030;-69
2022/12/19 12:23:24;;;;;;;4.68;1.75;;;8.80;99.90;;;;;;4992406;28;20059;-70
2022/12/19 12:26:03;;;;;;;6.38;2.00;;;8.70;99.90;;;;;;4978381;28;20569;-68
2022/12/19 12:28:55;;;;;;;5.70;3.03;;;8.80;99.90;;;;;;4995049;28;20586;-69
2022/12/19 12:31:23;;;;;;;4.88;2.30;;;8.80;99.90;;;;;;5010419;28;20161;-69
2022/12/19 12:34:13;;;;;;;5.82;2.25;;;8.80;99.90;;;;;;5007990;28;20833;-68
2022/12/19 12:36:50;;;;;;;5.37;2.67;;;8.80;99.90;;;;;;5008785;28;20033;-69
2022/12/19 12:39:22;;;;;;;4.60;1.98;;;8.90;99.90;;;;;;5007370;28;20041;-67
2022/12/19 12:42:16;;;;;;;3.95;1.92;;;8.90;99.90;;;;;;5007821;28;20026;-68
2022/12/19 12:44:43;;;;;;;6.20;2.15;;;8.90;99.90;;;;;;5013013;28;20564;-68
2022/12/19 12:47:23;;;;;;;6.18;2.20;;;9.00;99.90;;;;;;5020018;28;20041;-68
2022/12/19 12:50:02;;;;;;;4.28;1.70;;;9.00;99.90;;;;;;5013918;28;20038;-69
2022/12/19 12:52:44;;;;;;;3.83;1.60;;;9.10;99.90;;;;;;5011846;28;20060;-69
2022/12/19 12:55:31;;;;;;;2.97;1.80;;;9.10;99.90;;;;;;5018655;28;20120;-69
2022/12/19 12:57:57;;;;;;;3.85;1.60;;;9.20;99.90;;;;;;5014664;28;20677;-70
2022/12/19 13:00:33;;;;;;;6.93;2.47;;;9.20;99.90;;;;;;5000610;28;20048;-68
2022/12/19 13:03:18;;;;;;;3.28;1.67;;;9.20;99.90;;;;;;5018455;28;20042;-69
2022/12/19 13:06:30;;;;;;;3.22;1.60;;;9.20;99.90;;;;;;5017321;28;20037;-70
2022/12/19 13:09:08;;;;;;;5.97;2.30;;;9.20;99.90;;;;;;5014152;28;20030;-69
2022/12/19 13:14:34;;;;;;;3.47;1.90;;;9.30;99.90;;;;;;5016529;28;20129;-71
2022/12/19 13:17:01;;;;;;;13.95;2.35;;;9.30;99.90;;;;;;5020093;28;20529;-70
2022/12/19 13:19:30;;;;;;;4.43;2.15;;;9.30;99.90;;;;;;5019510;28;20034;-70